sensor_id;sensor_type;location;lat;lon;timestamp;P1;durP1;ratioP1;P2;durP2;ratioP2
81894;SDS011;71358;45.642;13.758;2023-07-20T00:00:50;3.58;;;1.55;;
81894;SDS011;71358;45.642;13.758;2023-07-20T00:03:18;3.55;;;1.80;;
81894;SDS011;71358;45.642;13.758;2023-07-20T00:05:48;4.05;;;1.75;;
81894;SDS011;71358;45.642;13.758;2023-07-20T00:08:15;2.00;;;1.77;;
81894;SDS011;71358;45.642;13.758;2023-07-20T00:10:42;3.00;;;1.98;;
81894;SDS011;71358;45.642;13.758;2023-07-20T00:13:08;2.67;;;1.73;;
81894;SDS011;71358;45.642;13.758;2023-07-20T00:15:34;3.80;;;2.15;;
81894;SDS011;71358;45.642;13.758;2023-07-20T00:18:00;3.53;;;2.30;;
81894;SDS011;71358;45.642;13.758;2023-07-20T00:20:26;5.40;;;2.25;;
81894;SDS011;71358;45.642;13.758;2023-07-20T00:22:52;4.38;;;2.42;;
81894;SDS011;71358;45.642;13.758;2023-07-20T00:25:20;5.35;;;2.97;;
81894;SDS011;71358;45.642;13.758;2023-07-20T00:27:46;3.45;;;2.00;;
81894;SDS011;71358;45.642;13.758;2023-07-20T00:30:11;3.83;;;2.08;;
81894;SDS011;71358;45.642;13.758;2023-07-20T00:32:38;2.78;;;2.13;;
81894;SDS011;71358;45.642;13.758;2023-07-20T00:35:04;2.60;;;2.03;;
81894;SDS011;71358;45.642;13.758;2023-07-20T00:37:30;2.17;;;1.73;;
81894;SDS011;71358;45.642;13.758;2023-07-20T00:39:56;3.40;;;2.13;;
81894;SDS011;71358;45.642;13.758;2023-07-20T00:42:22;2.65;;;2.05;;
81894;SDS011;71358;45.642;13.758;2023-07-20T00:44:47;4.18;;;2.30;;
81894;SDS011;71358;45.642;13.758;2023-07-20T00:47:13;3.80;;;2.30;;
81894;SDS011;71358;45.642;13.758;2023-07-20T00:49:39;5.68;;;2.25;;
81894;SDS011;71358;45.642;13.758;2023-07-20T00:52:06;5.60;;;2.28;;
81894;SDS011;71358;45.642;13.758;2023-07-20T00:54:33;5.18;;;2.45;;
81894;SDS011;71358;45.642;13.758;2023-07-20T00:56:59;4.00;;;2.42;;
81894;SDS011;71358;45.642;13.758;2023-07-20T00:59:26;4.07;;;2.42;;
81894;SDS011;71358;45.642;13.758;2023-07-20T01:01:52;3.65;;;2.35;;
81894;SDS011;71358;45.642;13.758;2023-07-20T01:04:18;3.50;;;2.00;;
81894;SDS011;71358;45.642;13.758;2023-07-20T01:06:46;4.70;;;2.17;;
81894;SDS011;71358;45.642;13.758;2023-07-20T01:10:01;4.72;;;2.10;;
81894;SDS011;71358;45.642;13.758;2023-07-20T01:12:43;4.22;;;1.98;;
81894;SDS011;71358;45.642;13.758;2023-07-20T01:15:12;3.60;;;2.03;;
81894;SDS011;71358;45.642;13.758;2023-07-20T01:17:38;3.63;;;2.60;;
81894;SDS011;71358;45.642;13.758;2023-07-20T01:20:06;3.13;;;1.95;;
81894;SDS011;71358;45.642;13.758;2023-07-20T01:33:33;4.63;;;2.10;;
81894;SDS011;71358;45.642;13.758;2023-07-20T01:35:59;4.55;;;2.08;;
81894;SDS011;71358;45.642;13.758;2023-07-20T01:38:27;2.28;;;2.08;;
81894;SDS011;71358;45.642;13.758;2023-07-20T01:40:54;3.90;;;2.20;;
81894;SDS011;71358;45.642;13.758;2023-07-20T01:43:21;5.55;;;2.85;;
81894;SDS011;71358;45.642;13.758;2023-07-20T01:45:47;3.22;;;2.28;;
81894;SDS011;71358;45.642;13.758;2023-07-20T01:48:13;3.45;;;2.08;;
81894;SDS011;71358;45.642;13.758;2023-07-20T01:50:38;4.45;;;2.42;;
81894;SDS011;71358;45.642;13.758;2023-07-20T01:53:04;3.55;;;2.42;;
81894;SDS011;71358;45.642;13.758;2023-07-20T01:55:30;3.70;;;2.03;;
81894;SDS011;71358;45.642;13.758;2023-07-20T01:57:56;3.63;;;2.40;;
81894;SDS011;71358;45.642;13.758;2023-07-20T02:00:22;3.78;;;2.38;;
81894;SDS011;71358;45.642;13.758;2023-07-20T02:02:50;4.32;;;2.30;;
81894;SDS011;71358;45.642;13.758;2023-07-20T02:05:16;4.40;;;2.40;;
81894;SDS011;71358;45.642;13.758;2023-07-20T02:07:42;4.03;;;2.40;;
81894;SDS011;71358;45.642;13.758;2023-07-20T02:10:08;6.47;;;2.80;;
81894;SDS011;71358;45.642;13.758;2023-07-20T02:12:35;4.00;;;2.38;;
81894;SDS011;71358;45.642;13.758;2023-07-20T02:15:01;4.18;;;2.80;;
81894;SDS011;71358;45.642;13.758;2023-07-20T02:17:28;4.68;;;2.78;;
81894;SDS011;71358;45.642;13.758;2023-07-20T02:19:54;3.35;;;2.38;;
81894;SDS011;71358;45.642;13.758;2023-07-20T02:22:21;3.92;;;3.13;;
81894;SDS011;71358;45.642;13.758;2023-07-20T02:24:47;7.95;;;3.40;;
81894;SDS011;71358;45.642;13.758;2023-07-20T02:27:13;4.05;;;2.67;;
81894;SDS011;71358;45.642;13.758;2023-07-20T02:29:40;5.18;;;2.70;;
81894;SDS011;71358;45.642;13.758;2023-07-20T02:32:07;3.38;;;2.45;;
81894;SDS011;71358;45.642;13.758;2023-07-20T02:34:34;6.25;;;2.90;;
81894;SDS011;71358;45.642;13.758;2023-07-20T02:37:00;4.60;;;2.65;;
81894;SDS011;71358;45.642;13.758;2023-07-20T02:39:29;3.05;;;2.38;;
81894;SDS011;71358;45.642;13.758;2023-07-20T02:41:55;5.10;;;2.40;;
81894;SDS011;71358;45.642;13.758;2023-07-20T02:44:21;3.25;;;2.55;;
81894;SDS011;71358;45.642;13.758;2023-07-20T02:46:48;3.60;;;2.55;;
81894;SDS011;71358;45.642;13.758;2023-07-20T02:49:15;2.70;;;2.47;;
81894;SDS011;71358;45.642;13.758;2023-07-20T02:51:41;7.10;;;2.92;;
81894;SDS011;71358;45.642;13.758;2023-07-20T02:54:07;5.25;;;2.78;;
81894;SDS011;71358;45.642;13.758;2023-07-20T02:56:33;3.88;;;3.00;;
81894;SDS011;71358;45.642;13.758;2023-07-20T02:59:00;4.68;;;2.60;;
81894;SDS011;71358;45.642;13.758;2023-07-20T03:01:27;3.38;;;2.50;;
81894;SDS011;71358;45.642;13.758;2023-07-20T03:03:54;3.72;;;2.35;;
81894;SDS011;71358;45.642;13.758;2023-07-20T03:06:21;3.80;;;2.58;;
81894;SDS011;71358;45.642;13.758;2023-07-20T03:08:47;7.13;;;2.67;;
81894;SDS011;71358;45.642;13.758;2023-07-20T03:11:14;3.20;;;2.30;;
81894;SDS011;71358;45.642;13.758;2023-07-20T03:13:43;5.25;;;2.35;;
81894;SDS011;71358;45.642;13.758;2023-07-20T03:16:10;3.95;;;2.42;;
81894;SDS011;71358;45.642;13.758;2023-07-20T03:18:37;3.08;;;2.38;;
81894;SDS011;71358;45.642;13.758;2023-07-20T03:21:04;3.65;;;2.67;;
81894;SDS011;71358;45.642;13.758;2023-07-20T03:23:30;4.10;;;2.72;;
81894;SDS011;71358;45.642;13.758;2023-07-20T03:25:56;3.42;;;2.42;;
81894;SDS011;71358;45.642;13.758;2023-07-20T03:28:22;6.22;;;2.38;;
81894;SDS011;71358;45.642;13.758;2023-07-20T03:30:54;3.40;;;2.42;;
81894;SDS011;71358;45.642;13.758;2023-07-20T03:33:30;3.75;;;2.60;;
81894;SDS011;71358;45.642;13.758;2023-07-20T03:35:57;4.82;;;2.50;;
81894;SDS011;71358;45.642;13.758;2023-07-20T03:38:24;5.07;;;2.58;;
81894;SDS011;71358;45.642;13.758;2023-07-20T03:40:54;5.78;;;2.70;;
81894;SDS011;71358;45.642;13.758;2023-07-20T03:43:22;5.38;;;2.78;;
81894;SDS011;71358;45.642;13.758;2023-07-20T03:45:48;2.80;;;2.10;;
81894;SDS011;71358;45.642;13.758;2023-07-20T03:48:21;4.28;;;2.30;;
81894;SDS011;71358;45.642;13.758;2023-07-20T03:50:49;5.15;;;2.47;;
81894;SDS011;71358;45.642;13.758;2023-07-20T03:53:17;4.38;;;2.65;;
81894;SDS011;71358;45.642;13.758;2023-07-20T03:55:50;4.05;;;2.72;;
81894;SDS011;71358;45.642;13.758;2023-07-20T03:58:17;4.82;;;2.65;;
81894;SDS011;71358;45.642;13.758;2023-07-20T04:00:47;3.83;;;2.53;;
81894;SDS011;71358;45.642;13.758;2023-07-20T04:03:14;5.55;;;2.45;;
81894;SDS011;71358;45.642;13.758;2023-07-20T04:05:40;4.13;;;3.10;;
81894;SDS011;71358;45.642;13.758;2023-07-20T04:08:06;4.28;;;2.50;;
81894;SDS011;71358;45.642;13.758;2023-07-20T04:10:32;3.33;;;2.40;;
81894;SDS011;71358;45.642;13.758;2023-07-20T04:12:58;3.70;;;2.55;;
81894;SDS011;71358;45.642;13.758;2023-07-20T04:15:25;3.17;;;2.40;;
81894;SDS011;71358;45.642;13.758;2023-07-20T04:17:51;5.68;;;3.28;;
81894;SDS011;71358;45.642;13.758;2023-07-20T04:20:16;5.55;;;2.70;;
81894;SDS011;71358;45.642;13.758;2023-07-20T04:22:43;5.63;;;2.60;;
81894;SDS011;71358;45.642;13.758;2023-07-20T04:25:12;4.97;;;2.60;;
81894;SDS011;71358;45.642;13.758;2023-07-20T04:27:38;4.53;;;2.60;;
81894;SDS011;71358;45.642;13.758;2023-07-20T04:30:04;3.63;;;2.70;;
81894;SDS011;71358;45.642;13.758;2023-07-20T04:32:32;5.05;;;2.78;;
81894;SDS011;71358;45.642;13.758;2023-07-20T04:35:00;4.15;;;2.53;;
81894;SDS011;71358;45.642;13.758;2023-07-20T04:37:27;3.28;;;2.50;;
81894;SDS011;71358;45.642;13.758;2023-07-20T04:39:52;4.75;;;2.72;;
81894;SDS011;71358;45.642;13.758;2023-07-20T04:42:19;4.47;;;2.78;;
81894;SDS011;71358;45.642;13.758;2023-07-20T04:44:45;5.50;;;2.42;;
81894;SDS011;71358;45.642;13.758;2023-07-20T04:47:11;3.65;;;2.70;;
81894;SDS011;71358;45.642;13.758;2023-07-20T04:49:38;4.80;;;2.45;;
81894;SDS011;71358;45.642;13.758;2023-07-20T04:52:04;4.45;;;2.33;;
81894;SDS011;71358;45.642;13.758;2023-07-20T04:54:31;4.05;;;2.55;;
81894;SDS011;71358;45.642;13.758;2023-07-20T04:56:57;3.85;;;3.10;;
81894;SDS011;71358;45.642;13.758;2023-07-20T04:59:23;3.60;;;2.42;;
81894;SDS011;71358;45.642;13.758;2023-07-20T05:01:49;4.45;;;2.83;;
81894;SDS011;71358;45.642;13.758;2023-07-20T05:04:16;3.88;;;2.35;;
81894;SDS011;71358;45.642;13.758;2023-07-20T05:06:42;4.60;;;2.55;;
81894;SDS011;71358;45.642;13.758;2023-07-20T05:09:08;2.58;;;2.20;;
81894;SDS011;71358;45.642;13.758;2023-07-20T05:11:34;4.00;;;2.50;;
81894;SDS011;71358;45.642;13.758;2023-07-20T05:14:00;2.78;;;2.20;;
81894;SDS011;71358;45.642;13.758;2023-07-20T05:16:27;5.22;;;3.10;;
81894;SDS011;71358;45.642;13.758;2023-07-20T05:18:57;5.10;;;2.15;;
81894;SDS011;71358;45.642;13.758;2023-07-20T05:21:23;3.10;;;2.25;;
81894;SDS011;71358;45.642;13.758;2023-07-20T05:23:49;2.92;;;2.10;;
81894;SDS011;71358;45.642;13.758;2023-07-20T05:26:15;4.15;;;2.22;;
81894;SDS011;71358;45.642;13.758;2023-07-20T05:28:40;4.50;;;2.47;;
81894;SDS011;71358;45.642;13.758;2023-07-20T05:31:06;3.55;;;2.60;;
81894;SDS011;71358;45.642;13.758;2023-07-20T05:33:32;4.97;;;3.03;;
81894;SDS011;71358;45.642;13.758;2023-07-20T05:35:58;5.68;;;2.80;;
81894;SDS011;71358;45.642;13.758;2023-07-20T05:38:24;4.82;;;2.50;;
81894;SDS011;71358;45.642;13.758;2023-07-20T05:40:50;6.60;;;2.90;;
81894;SDS011;71358;45.642;13.758;2023-07-20T05:43:16;4.88;;;2.88;;
81894;SDS011;71358;45.642;13.758;2023-07-20T05:45:42;5.07;;;2.95;;
81894;SDS011;71358;45.642;13.758;2023-07-20T05:48:08;2.88;;;2.40;;
81894;SDS011;71358;45.642;13.758;2023-07-20T05:50:36;4.43;;;2.80;;
81894;SDS011;71358;45.642;13.758;2023-07-20T05:53:03;4.35;;;2.75;;
81894;SDS011;71358;45.642;13.758;2023-07-20T05:55:29;6.32;;;3.22;;
81894;SDS011;71358;45.642;13.758;2023-07-20T05:57:54;4.50;;;2.92;;
81894;SDS011;71358;45.642;13.758;2023-07-20T06:00:21;3.97;;;2.70;;
81894;SDS011;71358;45.642;13.758;2023-07-20T06:02:54;3.70;;;2.60;;
81894;SDS011;71358;45.642;13.758;2023-07-20T06:05:20;3.75;;;2.97;;
81894;SDS011;71358;45.642;13.758;2023-07-20T06:07:47;2.63;;;2.30;;
81894;SDS011;71358;45.642;13.758;2023-07-20T06:10:13;2.97;;;2.50;;
81894;SDS011;71358;45.642;13.758;2023-07-20T06:12:38;3.63;;;2.70;;
81894;SDS011;71358;45.642;13.758;2023-07-20T06:15:04;3.35;;;3.05;;
81894;SDS011;71358;45.642;13.758;2023-07-20T06:17:31;4.00;;;2.20;;
81894;SDS011;71358;45.642;13.758;2023-07-20T06:19:58;5.20;;;2.38;;
81894;SDS011;71358;45.642;13.758;2023-07-20T06:22:23;4.32;;;2.83;;
81894;SDS011;71358;45.642;13.758;2023-07-20T06:24:49;5.88;;;2.88;;
81894;SDS011;71358;45.642;13.758;2023-07-20T06:27:15;3.90;;;2.55;;
81894;SDS011;71358;45.642;13.758;2023-07-20T06:29:41;5.57;;;3.00;;
81894;SDS011;71358;45.642;13.758;2023-07-20T06:32:07;4.25;;;2.60;;
81894;SDS011;71358;45.642;13.758;2023-07-20T06:34:33;2.60;;;2.13;;
81894;SDS011;71358;45.642;13.758;2023-07-20T06:37:02;2.55;;;2.03;;
81894;SDS011;71358;45.642;13.758;2023-07-20T06:39:29;5.68;;;2.65;;
81894;SDS011;71358;45.642;13.758;2023-07-20T06:41:55;2.60;;;1.98;;
81894;SDS011;71358;45.642;13.758;2023-07-20T06:44:21;3.15;;;2.10;;
81894;SDS011;71358;45.642;13.758;2023-07-20T06:46:47;8.32;;;2.75;;
81894;SDS011;71358;45.642;13.758;2023-07-20T06:49:23;5.70;;;2.80;;
81894;SDS011;71358;45.642;13.758;2023-07-20T06:51:52;4.82;;;2.70;;
81894;SDS011;71358;45.642;13.758;2023-07-20T06:54:18;8.70;;;3.20;;
81894;SDS011;71358;45.642;13.758;2023-07-20T06:56:44;4.65;;;2.72;;
81894;SDS011;71358;45.642;13.758;2023-07-20T06:59:10;9.55;;;3.10;;
81894;SDS011;71358;45.642;13.758;2023-07-20T07:01:36;4.57;;;2.33;;
81894;SDS011;71358;45.642;13.758;2023-07-20T07:04:02;4.15;;;2.35;;
81894;SDS011;71358;45.642;13.758;2023-07-20T07:06:28;2.80;;;2.30;;
81894;SDS011;71358;45.642;13.758;2023-07-20T07:08:54;4.32;;;2.45;;
81894;SDS011;71358;45.642;13.758;2023-07-20T07:11:20;5.75;;;2.25;;
81894;SDS011;71358;45.642;13.758;2023-07-20T07:13:47;2.45;;;2.25;;
81894;SDS011;71358;45.642;13.758;2023-07-20T07:16:15;4.85;;;2.95;;
81894;SDS011;71358;45.642;13.758;2023-07-20T07:18:46;3.35;;;2.22;;
81894;SDS011;71358;45.642;13.758;2023-07-20T07:21:13;3.20;;;2.42;;
81894;SDS011;71358;45.642;13.758;2023-07-20T07:23:39;2.50;;;2.10;;
81894;SDS011;71358;45.642;13.758;2023-07-20T07:26:05;3.65;;;2.10;;
81894;SDS011;71358;45.642;13.758;2023-07-20T07:28:30;2.65;;;2.45;;
81894;SDS011;71358;45.642;13.758;2023-07-20T07:30:59;3.78;;;2.45;;
81894;SDS011;71358;45.642;13.758;2023-07-20T07:33:25;3.97;;;2.58;;
81894;SDS011;71358;45.642;13.758;2023-07-20T07:35:51;2.83;;;2.30;;
81894;SDS011;71358;45.642;13.758;2023-07-20T07:38:18;5.80;;;2.65;;
81894;SDS011;71358;45.642;13.758;2023-07-20T07:40:44;5.53;;;2.53;;
81894;SDS011;71358;45.642;13.758;2023-07-20T07:43:10;6.43;;;3.10;;
81894;SDS011;71358;45.642;13.758;2023-07-20T07:45:37;4.78;;;3.00;;
81894;SDS011;71358;45.642;13.758;2023-07-20T07:48:03;4.57;;;2.72;;
81894;SDS011;71358;45.642;13.758;2023-07-20T07:50:29;4.00;;;2.20;;
81894;SDS011;71358;45.642;13.758;2023-07-20T07:52:55;3.20;;;2.55;;
81894;SDS011;71358;45.642;13.758;2023-07-20T07:55:21;3.83;;;2.53;;
81894;SDS011;71358;45.642;13.758;2023-07-20T07:57:46;5.70;;;2.53;;
81894;SDS011;71358;45.642;13.758;2023-07-20T08:00:13;5.15;;;3.03;;
81894;SDS011;71358;45.642;13.758;2023-07-20T08:02:42;3.05;;;2.67;;
81894;SDS011;71358;45.642;13.758;2023-07-20T08:05:08;4.65;;;2.70;;
81894;SDS011;71358;45.642;13.758;2023-07-20T08:07:35;4.55;;;2.67;;
81894;SDS011;71358;45.642;13.758;2023-07-20T08:10:03;4.20;;;2.60;;
81894;SDS011;71358;45.642;13.758;2023-07-20T08:12:30;3.25;;;2.42;;
81894;SDS011;71358;45.642;13.758;2023-07-20T08:14:57;3.85;;;2.53;;
81894;SDS011;71358;45.642;13.758;2023-07-20T08:17:22;3.70;;;2.45;;
81894;SDS011;71358;45.642;13.758;2023-07-20T08:19:48;5.80;;;2.85;;
81894;SDS011;71358;45.642;13.758;2023-07-20T08:22:14;3.33;;;2.50;;
81894;SDS011;71358;45.642;13.758;2023-07-20T08:24:43;5.78;;;2.70;;
81894;SDS011;71358;45.642;13.758;2023-07-20T08:27:09;4.70;;;2.80;;
81894;SDS011;71358;45.642;13.758;2023-07-20T08:29:35;4.22;;;2.40;;
81894;SDS011;71358;45.642;13.758;2023-07-20T08:32:02;4.70;;;2.67;;
81894;SDS011;71358;45.642;13.758;2023-07-20T08:34:29;4.40;;;3.03;;
81894;SDS011;71358;45.642;13.758;2023-07-20T08:36:55;5.82;;;2.88;;
81894;SDS011;71358;45.642;13.758;2023-07-20T08:39:22;3.47;;;2.72;;
81894;SDS011;71358;45.642;13.758;2023-07-20T08:41:49;5.53;;;3.40;;
81894;SDS011;71358;45.642;13.758;2023-07-20T08:44:15;4.80;;;2.78;;
81894;SDS011;71358;45.642;13.758;2023-07-20T08:46:41;5.32;;;3.45;;
81894;SDS011;71358;45.642;13.758;2023-07-20T08:49:07;6.40;;;3.15;;
81894;SDS011;71358;45.642;13.758;2023-07-20T08:51:34;5.82;;;3.35;;
81894;SDS011;71358;45.642;13.758;2023-07-20T08:54:01;4.35;;;3.15;;
81894;SDS011;71358;45.642;13.758;2023-07-20T08:56:27;8.32;;;3.80;;
81894;SDS011;71358;45.642;13.758;2023-07-20T08:58:56;5.53;;;3.65;;
81894;SDS011;71358;45.642;13.758;2023-07-20T09:01:24;11.95;;;3.58;;
81894;SDS011;71358;45.642;13.758;2023-07-20T09:03:51;6.20;;;3.42;;
81894;SDS011;71358;45.642;13.758;2023-07-20T09:06:17;9.93;;;3.55;;
81894;SDS011;71358;45.642;13.758;2023-07-20T09:08:43;4.57;;;3.35;;
81894;SDS011;71358;45.642;13.758;2023-07-20T09:11:11;4.43;;;3.25;;
81894;SDS011;71358;45.642;13.758;2023-07-20T09:13:38;7.18;;;3.55;;
81894;SDS011;71358;45.642;13.758;2023-07-20T09:16:04;7.65;;;3.63;;
81894;SDS011;71358;45.642;13.758;2023-07-20T09:18:31;4.57;;;3.83;;
81894;SDS011;71358;45.642;13.758;2023-07-20T09:20:57;3.28;;;2.97;;
81894;SDS011;71358;45.642;13.758;2023-07-20T09:23:43;3.63;;;3.33;;
81894;SDS011;71358;45.642;13.758;2023-07-20T09:26:09;4.18;;;3.83;;
81894;SDS011;71358;45.642;13.758;2023-07-20T09:28:41;6.78;;;3.47;;
81894;SDS011;71358;45.642;13.758;2023-07-20T09:31:16;3.47;;;3.17;;
81894;SDS011;71358;45.642;13.758;2023-07-20T09:33:46;5.10;;;3.70;;
81894;SDS011;71358;45.642;13.758;2023-07-20T09:36:13;4.05;;;3.38;;
81894;SDS011;71358;45.642;13.758;2023-07-20T09:38:42;3.95;;;3.22;;
81894;SDS011;71358;45.642;13.758;2023-07-20T09:41:14;3.58;;;2.80;;
81894;SDS011;71358;45.642;13.758;2023-07-20T09:43:40;4.22;;;3.10;;
81894;SDS011;71358;45.642;13.758;2023-07-20T09:46:07;5.95;;;3.35;;
81894;SDS011;71358;45.642;13.758;2023-07-20T09:48:33;4.50;;;2.95;;
81894;SDS011;71358;45.642;13.758;2023-07-20T09:50:58;4.80;;;3.15;;
81894;SDS011;71358;45.642;13.758;2023-07-20T09:53:26;3.33;;;3.03;;
81894;SDS011;71358;45.642;13.758;2023-07-20T09:55:53;3.70;;;3.40;;
81894;SDS011;71358;45.642;13.758;2023-07-20T09:58:21;3.13;;;2.80;;
81894;SDS011;71358;45.642;13.758;2023-07-20T10:00:47;3.30;;;3.00;;
81894;SDS011;71358;45.642;13.758;2023-07-20T10:03:18;3.47;;;2.88;;
81894;SDS011;71358;45.642;13.758;2023-07-20T10:05:49;4.20;;;3.22;;
81894;SDS011;71358;45.642;13.758;2023-07-20T10:08:20;3.28;;;2.97;;
81894;SDS011;71358;45.642;13.758;2023-07-20T10:10:48;3.80;;;3.00;;
81894;SDS011;71358;45.642;13.758;2023-07-20T10:13:17;6.15;;;2.92;;
81894;SDS011;71358;45.642;13.758;2023-07-20T10:15:50;3.28;;;2.97;;
81894;SDS011;71358;45.642;13.758;2023-07-20T10:18:29;4.10;;;2.92;;
81894;SDS011;71358;45.642;13.758;2023-07-20T10:21:17;4.45;;;3.03;;
81894;SDS011;71358;45.642;13.758;2023-07-20T10:23:45;3.88;;;3.35;;
81894;SDS011;71358;45.642;13.758;2023-07-20T10:26:11;6.13;;;3.30;;
81894;SDS011;71358;45.642;13.758;2023-07-20T10:28:38;3.30;;;3.00;;
81894;SDS011;71358;45.642;13.758;2023-07-20T10:31:05;4.18;;;3.50;;
81894;SDS011;71358;45.642;13.758;2023-07-20T10:33:33;5.57;;;3.50;;
81894;SDS011;71358;45.642;13.758;2023-07-20T10:36:03;5.07;;;3.65;;
81894;SDS011;71358;45.642;13.758;2023-07-20T10:38:42;5.18;;;3.60;;
81894;SDS011;71358;45.642;13.758;2023-07-20T10:43:59;4.68;;;3.25;;
81894;SDS011;71358;45.642;13.758;2023-07-20T10:49:05;4.15;;;3.50;;
81894;SDS011;71358;45.642;13.758;2023-07-20T10:51:45;4.97;;;3.30;;
81894;SDS011;71358;45.642;13.758;2023-07-20T10:56:42;4.93;;;3.70;;
81894;SDS011;71358;45.642;13.758;2023-07-20T11:01:59;5.53;;;3.83;;
81894;SDS011;71358;45.642;13.758;2023-07-20T11:04:39;6.70;;;3.75;;
81894;SDS011;71358;45.642;13.758;2023-07-20T11:07:16;4.20;;;3.42;;
81894;SDS011;71358;45.642;13.758;2023-07-20T11:10:14;3.72;;;3.00;;
81894;SDS011;71358;45.642;13.758;2023-07-20T11:12:40;5.72;;;3.05;;
81894;SDS011;71358;45.642;13.758;2023-07-20T11:15:06;32.00;;;27.58;;
81894;SDS011;71358;45.642;13.758;2023-07-20T11:17:32;46.05;;;37.67;;
81894;SDS011;71358;45.642;13.758;2023-07-20T11:19:59;58.92;;;48.50;;
81894;SDS011;71358;45.642;13.758;2023-07-20T11:22:26;68.90;;;52.97;;
81894;SDS011;71358;45.642;13.758;2023-07-20T11:24:56;67.95;;;53.90;;
81894;SDS011;71358;45.642;13.758;2023-07-20T11:27:23;81.72;;;60.40;;
